sensor_id;sensor_type;location;lat;lon;timestamp;temperature;humidity
7388;DHT22;3735;50.136;11.062;2023-04-10T00:02:18;2.20;99.90
7388;DHT22;3735;50.136;11.062;2023-04-10T00:04:43;2.10;99.90
7388;DHT22;3735;50.136;11.062;2023-04-10T00:07:09;2.10;99.90
7388;DHT22;3735;50.136;11.062;2023-04-10T00:09:35;2.20;99.90
7388;DHT22;3735;50.136;11.062;2023-04-10T00:12:01;2.20;99.90
7388;DHT22;3735;50.136;11.062;2023-04-10T00:14:27;2.10;99.90
7388;DHT22;3735;50.136;11.062;2023-04-10T00:16:52;2.00;99.90
7388;DHT22;3735;50.136;11.062;2023-04-10T00:19:18;1.90;99.90
7388;DHT22;3735;50.136;11.062;2023-04-10T00:21:44;1.90;99.90
7388;DHT22;3735;50.136;11.062;2023-04-10T00:24:10;1.80;99.90
7388;DHT22;3735;50.136;11.062;2023-04-10T00:26:36;1.80;99.90
7388;DHT22;3735;50.136;11.062;2023-04-10T00:29:02;1.90;99.90
7388;DHT22;3735;50.136;11.062;2023-04-10T00:31:29;2.00;99.90
7388;DHT22;3735;50.136;11.062;2023-04-10T00:33:56;2.10;99.90
7388;DHT22;3735;50.136;11.062;2023-04-10T00:36:22;2.30;99.90
7388;DHT22;3735;50.136;11.062;2023-04-10T00:38:48;2.30;99.90
7388;DHT22;3735;50.136;11.062;2023-04-10T00:41:16;2.20;99.90
7388;DHT22;3735;50.136;11.062;2023-04-10T00:43:43;2.20;99.90
7388;DHT22;3735;50.136;11.062;2023-04-10T00:46:09;2.10;99.90
7388;DHT22;3735;50.136;11.062;2023-04-10T00:48:36;2.10;99.90
7388;DHT22;3735;50.136;11.062;2023-04-10T00:51:03;2.10;99.90
7388;DHT22;3735;50.136;11.062;2023-04-10T00:53:30;2.20;99.90
7388;DHT22;3735;50.136;11.062;2023-04-10T00:55:57;2.10;99.90
7388;DHT22;3735;50.136;11.062;2023-04-10T00:58:24;2.10;99.90
7388;DHT22;3735;50.136;11.062;2023-04-10T01:00:51;2.00;99.90
7388;DHT22;3735;50.136;11.062;2023-04-10T01:03:18;2.00;99.90
7388;DHT22;3735;50.136;11.062;2023-04-10T01:06:05;1.90;99.90
7388;DHT22;3735;50.136;11.062;2023-04-10T01:09:25;1.90;99.90
7388;DHT22;3735;50.136;11.062;2023-04-10T01:20:22;1.90;99.90
7388;DHT22;3735;50.136;11.062;2023-04-10T01:28:50;1.80;99.90
7388;DHT22;3735;50.136;11.062;2023-04-10T01:31:57;1.80;99.90
7388;DHT22;3735;50.136;11.062;2023-04-10T01:34:35;1.80;99.90
7388;DHT22;3735;50.136;11.062;2023-04-10T01:37:08;1.80;99.90
7388;DHT22;3735;50.136;11.062;2023-04-10T01:39:40;1.80;99.90
7388;DHT22;3735;50.136;11.062;2023-04-10T01:42:08;1.80;99.90
7388;DHT22;3735;50.136;11.062;2023-04-10T01:44:40;1.80;99.90
7388;DHT22;3735;50.136;11.062;2023-04-10T01:47:07;1.70;99.90
7388;DHT22;3735;50.136;11.062;2023-04-10T01:49:34;1.60;99.90
7388;DHT22;3735;50.136;11.062;2023-04-10T01:52:02;1.60;99.90
7388;DHT22;3735;50.136;11.062;2023-04-10T01:54:32;1.40;99.90
7388;DHT22;3735;50.136;11.062;2023-04-10T01:57:00;1.40;99.90
7388;DHT22;3735;50.136;11.062;2023-04-10T01:59:28;1.40;99.90
7388;DHT22;3735;50.136;11.062;2023-04-10T02:01:56;1.40;99.90
7388;DHT22;3735;50.136;11.062;2023-04-10T02:04:25;1.50;99.90
7388;DHT22;3735;50.136;11.062;2023-04-10T02:07:12;1.40;99.90
7388;DHT22;3735;50.136;11.062;2023-04-10T02:09:58;1.40;99.90
7388;DHT22;3735;50.136;11.062;2023-04-10T02:12:51;1.30;99.90
7388;DHT22;3735;50.136;11.062;2023-04-10T02:15:22;1.30;99.90
7388;DHT22;3735;50.136;11.062;2023-04-10T02:17:51;1.30;99.90
7388;DHT22;3735;50.136;11.062;2023-04-10T02:20:19;1.30;99.90
7388;DHT22;3735;50.136;11.062;2023-04-10T02:22:47;1.20;99.90
7388;DHT22;3735;50.136;11.062;2023-04-10T02:25:14;1.20;99.90
7388;DHT22;3735;50.136;11.062;2023-04-10T02:27:40;1.20;99.90
7388;DHT22;3735;50.136;11.062;2023-04-10T02:30:07;1.10;99.90
7388;DHT22;3735;50.136;11.062;2023-04-10T02:32:33;1.00;99.90
7388;DHT22;3735;50.136;11.062;2023-04-10T02:34:59;0.90;99.90
7388;DHT22;3735;50.136;11.062;2023-04-10T02:37:26;0.70;99.90
7388;DHT22;3735;50.136;11.062;2023-04-10T02:39:53;0.70;99.90
7388;DHT22;3735;50.136;11.062;2023-04-10T02:42:19;0.60;99.90
7388;DHT22;3735;50.136;11.062;2023-04-10T02:44:46;0.60;99.90
7388;DHT22;3735;50.136;11.062;2023-04-10T02:47:12;0.70;99.90
7388;DHT22;3735;50.136;11.062;2023-04-10T02:49:38;0.70;99.90
7388;DHT22;3735;50.136;11.062;2023-04-10T02:52:04;0.80;99.90
7388;DHT22;3735;50.136;11.062;2023-04-10T02:54:30;0.80;99.90
7388;DHT22;3735;50.136;11.062;2023-04-10T02:56:56;0.80;99.90
7388;DHT22;3735;50.136;11.062;2023-04-10T02:59:23;0.90;99.90
7388;DHT22;3735;50.136;11.062;2023-04-10T03:01:49;0.90;99.90
7388;DHT22;3735;50.136;11.062;2023-04-10T03:04:16;0.90;99.90
7388;DHT22;3735;50.136;11.062;2023-04-10T03:06:43;1.00;99.90
7388;DHT22;3735;50.136;11.062;2023-04-10T03:09:09;1.10;99.90
7388;DHT22;3735;50.136;11.062;2023-04-10T03:11:34;1.00;99.90
7388;DHT22;3735;50.136;11.062;2023-04-10T03:14:00;1.00;99.90
7388;DHT22;3735;50.136;11.062;2023-04-10T03:16:26;1.00;99.90
7388;DHT22;3735;50.136;11.062;2023-04-10T03:18:52;0.90;99.90
7388;DHT22;3735;50.136;11.062;2023-04-10T03:21:18;0.80;99.90
7388;DHT22;3735;50.136;11.062;2023-04-10T03:23:44;0.70;99.90
7388;DHT22;3735;50.136;11.062;2023-04-10T03:26:10;0.70;99.90
7388;DHT22;3735;50.136;11.062;2023-04-10T03:28:36;0.80;99.90
7388;DHT22;3735;50.136;11.062;2023-04-10T03:31:02;0.80;99.90
7388;DHT22;3735;50.136;11.062;2023-04-10T03:33:30;0.90;99.90
7388;DHT22;3735;50.136;11.062;2023-04-10T03:35:56;0.90;99.90
7388;DHT22;3735;50.136;11.062;2023-04-10T03:38:22;0.90;99.90
7388;DHT22;3735;50.136;11.062;2023-04-10T03:40:48;1.00;99.90
7388;DHT22;3735;50.136;11.062;2023-04-10T03:43:14;1.10;99.90
7388;DHT22;3735;50.136;11.062;2023-04-10T03:45:40;1.20;99.90
7388;DHT22;3735;50.136;11.062;2023-04-10T03:48:06;1.10;99.90
7388;DHT22;3735;50.136;11.062;2023-04-10T03:50:32;1.10;99.90
7388;DHT22;3735;50.136;11.062;2023-04-10T03:52:59;1.00;99.90
7388;DHT22;3735;50.136;11.062;2023-04-10T03:55:25;0.90;99.90
7388;DHT22;3735;50.136;11.062;2023-04-10T03:57:51;0.90;99.90
7388;DHT22;3735;50.136;11.062;2023-04-10T04:00:17;0.80;99.90
7388;DHT22;3735;50.136;11.062;2023-04-10T04:02:44;0.80;99.90
7388;DHT22;3735;50.136;11.062;2023-04-10T04:05:10;0.90;99.90
7388;DHT22;3735;50.136;11.062;2023-04-10T04:07:36;0.90;99.90
7388;DHT22;3735;50.136;11.062;2023-04-10T04:10:02;0.90;99.90
7388;DHT22;3735;50.136;11.062;2023-04-10T04:12:28;0.80;99.90
7388;DHT22;3735;50.136;11.062;2023-04-10T04:14:54;0.70;99.90
7388;DHT22;3735;50.136;11.062;2023-04-10T04:17:19;0.70;99.90
7388;DHT22;3735;50.136;11.062;2023-04-10T04:19:45;0.60;99.90
7388;DHT22;3735;50.136;11.062;2023-04-10T04:22:11;0.60;99.90
7388;DHT22;3735;50.136;11.062;2023-04-10T04:24:37;0.70;99.90
7388;DHT22;3735;50.136;11.062;2023-04-10T04:27:03;0.60;99.90
7388;DHT22;3735;50.136;11.062;2023-04-10T04:29:28;0.60;99.90
7388;DHT22;3735;50.136;11.062;2023-04-10T04:31:54;0.50;99.90
7388;DHT22;3735;50.136;11.062;2023-04-10T04:34:21;0.40;99.90
7388;DHT22;3735;50.136;11.062;2023-04-10T04:36:47;0.50;99.90
7388;DHT22;3735;50.136;11.062;2023-04-10T04:39:13;0.50;99.90
7388;DHT22;3735;50.136;11.062;2023-04-10T04:41:38;0.60;99.90
7388;DHT22;3735;50.136;11.062;2023-04-10T04:44:04;0.60;99.90
7388;DHT22;3735;50.136;11.062;2023-04-10T04:46:31;0.60;99.90
7388;DHT22;3735;50.136;11.062;2023-04-10T04:48:56;0.60;99.90
7388;DHT22;3735;50.136;11.062;2023-04-10T04:51:22;0.50;99.90
7388;DHT22;3735;50.136;11.062;2023-04-10T04:53:48;0.60;99.90
7388;DHT22;3735;50.136;11.062;2023-04-10T04:56:14;0.60;99.90
7388;DHT22;3735;50.136;11.062;2023-04-10T04:58:40;0.60;99.90
7388;DHT22;3735;50.136;11.062;2023-04-10T05:01:07;0.60;99.90
7388;DHT22;3735;50.136;11.062;2023-04-10T05:03:33;0.60;99.90
7388;DHT22;3735;50.136;11.062;2023-04-10T05:05:58;0.70;99.90
7388;DHT22;3735;50.136;11.062;2023-04-10T05:08:24;0.70;99.90
7388;DHT22;3735;50.136;11.062;2023-04-10T05:10:50;0.80;99.90
7388;DHT22;3735;50.136;11.062;2023-04-10T05:13:16;0.90;99.90
7388;DHT22;3735;50.136;11.062;2023-04-10T05:15:45;1.00;99.90
7388;DHT22;3735;50.136;11.062;2023-04-10T05:18:11;1.10;99.90
7388;DHT22;3735;50.136;11.062;2023-04-10T05:20:38;1.60;99.90
7388;DHT22;3735;50.136;11.062;2023-04-10T05:23:03;2.30;99.90
7388;DHT22;3735;50.136;11.062;2023-04-10T05:25:29;2.90;99.90
7388;DHT22;3735;50.136;11.062;2023-04-10T05:27:55;3.30;99.90
7388;DHT22;3735;50.136;11.062;2023-04-10T05:30:21;3.70;99.90
7388;DHT22;3735;50.136;11.062;2023-04-10T05:32:47;4.20;99.90
7388;DHT22;3735;50.136;11.062;2023-04-10T05:35:13;4.50;99.90
7388;DHT22;3735;50.136;11.062;2023-04-10T05:37:38;4.80;99.90
7388;DHT22;3735;50.136;11.062;2023-04-10T05:40:05;5.10;99.90
7388;DHT22;3735;50.136;11.062;2023-04-10T05:42:31;5.50;99.90
7388;DHT22;3735;50.136;11.062;2023-04-10T05:44:57;5.70;99.90
7388;DHT22;3735;50.136;11.062;2023-04-10T05:47:23;5.90;99.90
7388;DHT22;3735;50.136;11.062;2023-04-10T05:49:49;6.40;99.90
7388;DHT22;3735;50.136;11.062;2023-04-10T05:52:14;6.80;99.90
7388;DHT22;3735;50.136;11.062;2023-04-10T05:54:40;6.90;99.90
7388;DHT22;3735;50.136;11.062;2023-04-10T05:57:06;6.60;99.90
7388;DHT22;3735;50.136;11.062;2023-04-10T05:59:31;6.10;99.90
7388;DHT22;3735;50.136;11.062;2023-04-10T06:01:57;5.80;99.90
7388;DHT22;3735;50.136;11.062;2023-04-10T06:04:23;5.50;99.90
7388;DHT22;3735;50.136;11.062;2023-04-10T06:06:49;5.30;99.90
7388;DHT22;3735;50.136;11.062;2023-04-10T06:09:14;5.30;99.90
7388;DHT22;3735;50.136;11.062;2023-04-10T06:11:40;5.30;99.90
7388;DHT22;3735;50.136;11.062;2023-04-10T06:14:06;5.30;99.90
7388;DHT22;3735;50.136;11.062;2023-04-10T06:16:32;5.70;99.90
7388;DHT22;3735;50.136;11.062;2023-04-10T06:18:58;6.80;99.90
7388;DHT22;3735;50.136;11.062;2023-04-10T06:21:23;8.10;99.90
7388;DHT22;3735;50.136;11.062;2023-04-10T06:23:50;9.30;99.90
7388;DHT22;3735;50.136;11.062;2023-04-10T06:26:16;10.00;99.90
7388;DHT22;3735;50.136;11.062;2023-04-10T06:28:41;10.30;99.90
7388;DHT22;3735;50.136;11.062;2023-04-10T06:31:07;10.80;99.90
7388;DHT22;3735;50.136;11.062;2023-04-10T06:33:33;11.40;99.90
7388;DHT22;3735;50.136;11.062;2023-04-10T06:36:01;11.60;99.90
7388;DHT22;3735;50.136;11.062;2023-04-10T06:38:26;11.90;99.90
7388;DHT22;3735;50.136;11.062;2023-04-10T06:40:52;12.60;99.90
7388;DHT22;3735;50.136;11.062;2023-04-10T06:43:18;13.50;99.90
7388;DHT22;3735;50.136;11.062;2023-04-10T06:45:44;14.00;99.90
7388;DHT22;3735;50.136;11.062;2023-04-10T06:48:10;13.80;99.90
7388;DHT22;3735;50.136;11.062;2023-04-10T06:50:36;13.80;99.90
7388;DHT22;3735;50.136;11.062;2023-04-10T06:53:02;14.20;99.90
7388;DHT22;3735;50.136;11.062;2023-04-10T06:55:28;14.80;99.90
7388;DHT22;3735;50.136;11.062;2023-04-10T06:57:55;15.30;99.90
7388;DHT22;3735;50.136;11.062;2023-04-10T07:00:22;15.70;99.90
7388;DHT22;3735;50.136;11.062;2023-04-10T07:02:48;15.40;99.90
7388;DHT22;3735;50.136;11.062;2023-04-10T07:05:14;15.50;99.90
7388;DHT22;3735;50.136;11.062;2023-04-10T07:07:40;15.60;99.90
7388;DHT22;3735;50.136;11.062;2023-04-10T07:10:07;15.60;99.90
7388;DHT22;3735;50.136;11.062;2023-04-10T07:12:33;15.70;99.90
7388;DHT22;3735;50.136;11.062;2023-04-10T07:14:59;15.80;99.90
7388;DHT22;3735;50.136;11.062;2023-04-10T07:17:25;16.00;99.90
7388;DHT22;3735;50.136;11.062;2023-04-10T07:19:51;16.50;99.90
7388;DHT22;3735;50.136;11.062;2023-04-10T07:22:17;17.40;99.90
7388;DHT22;3735;50.136;11.062;2023-04-10T07:24:42;18.00;99.90
7388;DHT22;3735;50.136;11.062;2023-04-10T07:27:08;18.40;99.90
7388;DHT22;3735;50.136;11.062;2023-04-10T07:29:34;18.60;99.90
7388;DHT22;3735;50.136;11.062;2023-04-10T07:32:00;18.90;99.90
7388;DHT22;3735;50.136;11.062;2023-04-10T07:34:26;19.00;99.90
7388;DHT22;3735;50.136;11.062;2023-04-10T07:36:52;19.40;99.90
7388;DHT22;3735;50.136;11.062;2023-04-10T07:39:17;19.80;99.90
7388;DHT22;3735;50.136;11.062;2023-04-10T07:41:43;20.20;99.90
7388;DHT22;3735;50.136;11.062;2023-04-10T07:44:09;20.30;99.90
7388;DHT22;3735;50.136;11.062;2023-04-10T07:46:35;20.60;99.90
7388;DHT22;3735;50.136;11.062;2023-04-10T07:49:02;20.80;99.90
7388;DHT22;3735;50.136;11.062;2023-04-10T07:51:28;20.90;99.90
7388;DHT22;3735;50.136;11.062;2023-04-10T07:53:54;21.40;99.90
7388;DHT22;3735;50.136;11.062;2023-04-10T07:56:21;21.80;99.90
7388;DHT22;3735;50.136;11.062;2023-04-10T07:58:47;22.50;99.90
7388;DHT22;3735;50.136;11.062;2023-04-10T08:01:14;23.20;99.90
7388;DHT22;3735;50.136;11.062;2023-04-10T08:03:44;23.50;99.90
7388;DHT22;3735;50.136;11.062;2023-04-10T08:06:11;23.80;99.90
7388;DHT22;3735;50.136;11.062;2023-04-10T08:08:38;23.60;99.90
7388;DHT22;3735;50.136;11.062;2023-04-10T08:11:26;23.60;99.90
7388;DHT22;3735;50.136;11.062;2023-04-10T08:13:54;23.60;99.90
7388;DHT22;3735;50.136;11.062;2023-04-10T08:16:24;23.70;99.90
7388;DHT22;3735;50.136;11.062;2023-04-10T08:18:51;23.60;99.90
7388;DHT22;3735;50.136;11.062;2023-04-10T08:21:18;23.70;99.90
7388;DHT22;3735;50.136;11.062;2023-04-10T08:23:45;23.20;99.90
7388;DHT22;3735;50.136;11.062;2023-04-10T08:26:12;22.70;99.90
7388;DHT22;3735;50.136;11.062;2023-04-10T08:28:38;22.30;99.90
7388;DHT22;3735;50.136;11.062;2023-04-10T08:31:04;22.00;99.90
7388;DHT22;3735;50.136;11.062;2023-04-10T08:33:30;21.70;99.90
7388;DHT22;3735;50.136;11.062;2023-04-10T08:35:56;21.20;99.90
7388;DHT22;3735;50.136;11.062;2023-04-10T08:38:22;20.80;99.90
7388;DHT22;3735;50.136;11.062;2023-04-10T08:40:49;20.90;99.90
7388;DHT22;3735;50.136;11.062;2023-04-10T08:43:15;21.30;99.90
7388;DHT22;3735;50.136;11.062;2023-04-10T08:45:41;21.30;99.90
7388;DHT22;3735;50.136;11.062;2023-04-10T08:48:10;21.20;99.90
7388;DHT22;3735;50.136;11.062;2023-04-10T08:50:40;21.80;99.90
7388;DHT22;3735;50.136;11.062;2023-04-10T08:53:13;23.30;99.90
7388;DHT22;3735;50.136;11.062;2023-04-10T08:55:40;23.70;99.90
7388;DHT22;3735;50.136;11.062;2023-04-10T08:58:08;24.10;99.90
7388;DHT22;3735;50.136;11.062;2023-04-10T09:00:36;23.60;99.90
7388;DHT22;3735;50.136;11.062;2023-04-10T09:03:04;24.00;99.90
7388;DHT22;3735;50.136;11.062;2023-04-10T09:05:35;24.20;99.90
7388;DHT22;3735;50.136;11.062;2023-04-10T09:08:03;24.80;99.90
7388;DHT22;3735;50.136;11.062;2023-04-10T09:10:29;25.00;99.90
7388;DHT22;3735;50.136;11.062;2023-04-10T09:12:55;25.50;99.90
7388;DHT22;3735;50.136;11.062;2023-04-10T09:15:21;25.80;99.90
7388;DHT22;3735;50.136;11.062;2023-04-10T09:17:57;25.00;99.90
7388;DHT22;3735;50.136;11.062;2023-04-10T09:20:27;25.00;99.90
7388;DHT22;3735;50.136;11.062;2023-04-10T09:22:54;25.20;99.90
7388;DHT22;3735;50.136;11.062;2023-04-10T09:25:37;25.10;99.90
7388;DHT22;3735;50.136;11.062;2023-04-10T09:28:05;25.50;99.90
7388;DHT22;3735;50.136;11.062;2023-04-10T09:30:40;25.90;99.90
7388;DHT22;3735;50.136;11.062;2023-04-10T09:33:24;25.60;99.90
7388;DHT22;3735;50.136;11.062;2023-04-10T09:35:58;25.70;99.90
7388;DHT22;3735;50.136;11.062;2023-04-10T09:38:25;26.30;99.90
7388;DHT22;3735;50.136;11.062;2023-04-10T09:40:51;26.30;99.90
7388;DHT22;3735;50.136;11.062;2023-04-10T09:43:21;26.80;99.90
7388;DHT22;3735;50.136;11.062;2023-04-10T09:45:55;26.90;99.90
7388;DHT22;3735;50.136;11.062;2023-04-10T09:48:23;27.50;99.90
7388;DHT22;3735;50.136;11.062;2023-04-10T09:50:50;27.30;99.90
7388;DHT22;3735;50.136;11.062;2023-04-10T09:53:18;27.30;99.90
7388;DHT22;3735;50.136;11.062;2023-04-10T09:55:48;27.80;99.90
7388;DHT22;3735;50.136;11.062;2023-04-10T09:58:15;28.00;99.90
7388;DHT22;3735;50.136;11.062;2023-04-10T10:00:46;28.90;99.90
7388;DHT22;3735;50.136;11.062;2023-04-10T10:03:15;29.20;99.90
7388;DHT22;3735;50.136;11.062;2023-04-10T10:05:50;28.60;99.90
7388;DHT22;3735;50.136;11.062;2023-04-10T10:08:16;27.70;99.90
7388;DHT22;3735;50.136;11.062;2023-04-10T10:10:46;25.80;99.90
7388;DHT22;3735;50.136;11.062;2023-04-10T10:16:14;23.80;99.90
7388;DHT22;3735;50.136;11.062;2023-04-10T10:19:03;25.60;99.90
7388;DHT22;3735;50.136;11.062;2023-04-10T10:21:34;27.20;99.90
7388;DHT22;3735;50.136;11.062;2023-04-10T10:24:02;28.00;99.90
7388;DHT22;3735;50.136;11.062;2023-04-10T10:26:32;27.30;99.90
7388;DHT22;3735;50.136;11.062;2023-04-10T10:29:05;26.40;99.90
7388;DHT22;3735;50.136;11.062;2023-04-10T10:31:36;26.50;99.90
7388;DHT22;3735;50.136;11.062;2023-04-10T10:34:03;27.10;99.90
7388;DHT22;3735;50.136;11.062;2023-04-10T10:36:32;27.90;99.90
7388;DHT22;3735;50.136;11.062;2023-04-10T10:39:17;28.30;99.90
7388;DHT22;3735;50.136;11.062;2023-04-10T10:45:14;28.20;99.90
7388;DHT22;3735;50.136;11.062;2023-04-10T10:47:49;28.50;99.90
7388;DHT22;3735;50.136;11.062;2023-04-10T10:50:16;28.40;99.90
7388;DHT22;3735;50.136;11.062;2023-04-10T10:52:52;28.60;99.90
7388;DHT22;3735;50.136;11.062;2023-04-10T10:57:49;29.30;99.90
7388;DHT22;3735;50.136;11.062;2023-04-10T11:00:17;29.70;99.90
7388;DHT22;3735;50.136;11.062;2023-04-10T11:02:44;29.30;99.90
7388;DHT22;3735;50.136;11.062;2023-04-10T11:05:47;29.60;99.90
7388;DHT22;3735;50.136;11.062;2023-04-10T11:08:13;30.30;99.90
7388;DHT22;3735;50.136;11.062;2023-04-10T11:11:17;30.10;99.90
7388;DHT22;3735;50.136;11.062;2023-04-10T11:16:21;29.10;99.90
7388;DHT22;3735;50.136;11.062;2023-04-10T11:21:24;27.90;99.90
7388;DHT22;3735;50.136;11.062;2023-04-10T11:28:59;27.50;99.90
7388;DHT22;3735;50.136;11.062;2023-04-10T11:31:25;28.00;99.90
7388;DHT22;3735;50.136;11.062;2023-04-10T11:36:22;28.20;99.90
7388;DHT22;3735;50.136;11.062;2023-04-10T11:39:00;28.60;99.90
7388;DHT22;3735;50.136;11.062;2023-04-10T11:41:37;28.50;99.90
7388;DHT22;3735;50.136;11.062;2023-04-10T11:44:06;29.10;99.90
7388;DHT22;3735;50.136;11.062;2023-04-10T11:46:38;28.70;99.90
7388;DHT22;3735;50.136;11.062;2023-04-10T11:49:08;28.70;99.90
7388;DHT22;3735;50.136;11.062;2023-04-10T11:51:35;28.50;99.90
7388;DHT22;3735;50.136;11.062;2023-04-10T11:54:09;28.00;99.90
7388;DHT22;3735;50.136;11.062;2023-04-10T11:56:40;28.30;99.90
7388;DHT22;3735;50.136;11.062;2023-04-10T11:59:08;28.50;99.90
7388;DHT22;3735;50.136;11.062;2023-04-10T12:01:39;28.20;99.90
7388;DHT22;3735;50.136;11.062;2023-04-10T12:04:19;28.80;99.90
7388;DHT22;3735;50.136;11.062;2023-04-10T12:06:51;29.30;99.90
7388;DHT22;3735;50.136;11.062;2023-04-10T12:09:20;30.30;99.90
7388;DHT22;3735;50.136;11.062;2023-04-10T12:11:56;30.50;99.90
7388;DHT22;3735;50.136;11.062;2023-04-10T12:14:33;30.10;99.90
7388;DHT22;3735;50.136;11.062;2023-04-10T12:17:05;29.40;99.90
7388;DHT22;3735;50.136;11.062;2023-04-10T12:19:33;29.40;99.90
7388;DHT22;3735;50.136;11.062;2023-04-10T12:22:00;29.90;99.90
7388;DHT22;3735;50.136;11.062;2023-04-10T12:24:48;30.00;99.90
7388;DHT22;3735;50.136;11.062;2023-04-10T12:27:25;28.80;99.90
7388;DHT22;3735;50.136;11.062;2023-04-10T12:29:53;29.20;99.90
7388;DHT22;3735;50.136;11.062;2023-04-10T12:32:21;29.60;99.90
7388;DHT22;3735;50.136;11.062;2023-04-10T12:34:55;28.60;99.90
7388;DHT22;3735;50.136;11.062;2023-04-10T12:37:22;28.60;99.90
7388;DHT22;3735;50.136;11.062;2023-04-10T12:39:48;29.50;99.90
7388;DHT22;3735;50.136;11.062;2023-04-10T12:42:18;29.60;99.90
7388;DHT22;3735;50.136;11.062;2023-04-10T12:44:54;30.00;99.90
7388;DHT22;3735;50.136;11.062;2023-04-10T12:47:22;30.30;99.90
7388;DHT22;3735;50.136;11.062;2023-04-10T12:50:05;30.00;99.90
7388;DHT22;3735;50.136;11.062;2023-04-10T12:52:36;30.30;99.90
7388;DHT22;3735;50.136;11.062;2023-04-10T12:55:17;30.10;99.90
7388;DHT22;3735;50.136;11.062;2023-04-10T12:57:47;30.80;99.90
7388;DHT22;3735;50.136;11.062;2023-04-10T13:00:15;31.20;99.90
7388;DHT22;3735;50.136;11.062;2023-04-10T13:02:43;31.10;99.90
7388;DHT22;3735;50.136;11.062;2023-04-10T13:05:09;31.30;99.90
7388;DHT22;3735;50.136;11.062;2023-04-10T13:07:36;31.70;99.90
7388;DHT22;3735;50.136;11.062;2023-04-10T13:10:03;31.00;99.90
7388;DHT22;3735;50.136;11.062;2023-04-10T13:12:30;30.50;99.90
7388;DHT22;3735;50.136;11.062;2023-04-10T13:14:57;29.80;99.90
7388;DHT22;3735;50.136;11.062;2023-04-10T13:17:24;29.00;99.90
7388;DHT22;3735;50.136;11.062;2023-04-10T13:19:50;28.50;99.90
7388;DHT22;3735;50.136;11.062;2023-04-10T13:22:17;28.00;99.90
7388;DHT22;3735;50.136;11.062;2023-04-10T13:24:43;27.10;99.90
7388;DHT22;3735;50.136;11.062;2023-04-10T13:27:10;26.20;99.90
7388;DHT22;3735;50.136;11.062;2023-04-10T13:29:38;26.00;99.90
7388;DHT22;3735;50.136;11.062;2023-04-10T13:32:06;26.60;99.90
7388;DHT22;3735;50.136;11.062;2023-04-10T13:34:32;26.90;99.90
7388;DHT22;3735;50.136;11.062;2023-04-10T13:36:58;25.80;99.90
7388;DHT22;3735;50.136;11.062;2023-04-10T13:39:28;25.50;99.90
7388;DHT22;3735;50.136;11.062;2023-04-10T13:41:55;25.30;99.90
7388;DHT22;3735;50.136;11.062;2023-04-10T13:44:22;25.40;99.90
7388;DHT22;3735;50.136;11.062;2023-04-10T13:46:48;26.20;99.90
7388;DHT22;3735;50.136;11.062;2023-04-10T13:49:13;26.40;99.90
7388;DHT22;3735;50.136;11.062;2023-04-10T13:51:45;26.70;99.90
7388;DHT22;3735;50.136;11.062;2023-04-10T13:54:11;27.20;99.90
7388;DHT22;3735;50.136;11.062;2023-04-10T13:56:36;27.50;99.90
7388;DHT22;3735;50.136;11.062;2023-04-10T13:59:03;27.00;99.90
7388;DHT22;3735;50.136;11.062;2023-04-10T14:01:29;27.40;99.90
7388;DHT22;3735;50.136;11.062;2023-04-10T14:03:55;27.20;99.90
7388;DHT22;3735;50.136;11.062;2023-04-10T14:06:21;26.90;99.90
7388;DHT22;3735;50.136;11.062;2023-04-10T14:08:47;26.70;99.90
7388;DHT22;3735;50.136;11.062;2023-04-10T14:11:13;26.10;99.90
7388;DHT22;3735;50.136;11.062;2023-04-10T14:13:38;26.00;99.90
7388;DHT22;3735;50.136;11.062;2023-04-10T14:16:04;25.90;99.90
7388;DHT22;3735;50.136;11.062;2023-04-10T14:18:30;26.00;99.90
7388;DHT22;3735;50.136;11.062;2023-04-10T14:20:56;26.00;99.90
7388;DHT22;3735;50.136;11.062;2023-04-10T14:23:22;25.70;99.90
7388;DHT22;3735;50.136;11.062;2023-04-10T14:25:48;25.30;99.90
7388;DHT22;3735;50.136;11.062;2023-04-10T14:28:15;24.50;99.90
7388;DHT22;3735;50.136;11.062;2023-04-10T14:30:44;23.60;99.90
7388;DHT22;3735;50.136;11.062;2023-04-10T14:33:12;22.60;99.90
7388;DHT22;3735;50.136;11.062;2023-04-10T14:35:39;22.40;99.90
7388;DHT22;3735;50.136;11.062;2023-04-10T14:38:05;22.50;99.90
7388;DHT22;3735;50.136;11.062;2023-04-10T14:40:32;22.60;99.90
7388;DHT22;3735;50.136;11.062;2023-04-10T14:42:57;22.10;99.90
7388;DHT22;3735;50.136;11.062;2023-04-10T14:45:23;21.70;99.90
7388;DHT22;3735;50.136;11.062;2023-04-10T14:47:50;21.50;99.90
7388;DHT22;3735;50.136;11.062;2023-04-10T14:50:17;21.40;99.90
7388;DHT22;3735;50.136;11.062;2023-04-10T14:52:43;21.40;99.90
7388;DHT22;3735;50.136;11.062;2023-04-10T14:55:09;21.30;99.90
7388;DHT22;3735;50.136;11.062;2023-04-10T14:57:35;21.10;99.90
7388;DHT22;3735;50.136;11.062;2023-04-10T15:00:05;21.10;99.90
7388;DHT22;3735;50.136;11.062;2023-04-10T15:02:31;20.90;99.90
7388;DHT22;3735;50.136;11.062;2023-04-10T15:04:57;20.90;99.90
7388;DHT22;3735;50.136;11.062;2023-04-10T15:07:22;21.30;99.90
7388;DHT22;3735;50.136;11.062;2023-04-10T15:09:49;21.80;99.90
7388;DHT22;3735;50.136;11.062;2023-04-10T15:12:15;21.70;99.90
7388;DHT22;3735;50.136;11.062;2023-04-10T15:14:41;21.60;99.90
7388;DHT22;3735;50.136;11.062;2023-04-10T15:17:06;21.80;99.90
7388;DHT22;3735;50.136;11.062;2023-04-10T15:19:32;22.00;99.90
7388;DHT22;3735;50.136;11.062;2023-04-10T15:21:58;21.70;99.90
7388;DHT22;3735;50.136;11.062;2023-04-10T15:24:24;21.10;99.90
7388;DHT22;3735;50.136;11.062;2023-04-10T15:26:50;20.90;99.90
7388;DHT22;3735;50.136;11.062;2023-04-10T15:29:17;20.90;99.90
7388;DHT22;3735;50.136;11.062;2023-04-10T15:31:43;20.60;99.90
7388;DHT22;3735;50.136;11.062;2023-04-10T15:34:09;20.00;99.90
7388;DHT22;3735;50.136;11.062;2023-04-10T15:36:34;19.90;99.90
7388;DHT22;3735;50.136;11.062;2023-04-10T15:39:00;19.60;99.90
7388;DHT22;3735;50.136;11.062;2023-04-10T15:41:28;19.60;99.90
7388;DHT22;3735;50.136;11.062;2023-04-10T15:43:57;20.00;99.90
7388;DHT22;3735;50.136;11.062;2023-04-10T15:46:23;20.10;99.90
7388;DHT22;3735;50.136;11.062;2023-04-10T15:48:49;20.10;99.90
7388;DHT22;3735;50.136;11.062;2023-04-10T15:51:15;20.00;99.90
7388;DHT22;3735;50.136;11.062;2023-04-10T15:53:41;20.10;99.90
7388;DHT22;3735;50.136;11.062;2023-04-10T15:56:07;20.30;99.90
7388;DHT22;3735;50.136;11.062;2023-04-10T15:58:33;19.80;99.90
7388;DHT22;3735;50.136;11.062;2023-04-10T16:01:00;19.50;99.90
7388;DHT22;3735;50.136;11.062;2023-04-10T16:03:26;19.30;99.90
7388;DHT22;3735;50.136;11.062;2023-04-10T16:05:52;19.10;99.90
7388;DHT22;3735;50.136;11.062;2023-04-10T16:08:18;19.10;99.90
7388;DHT22;3735;50.136;11.062;2023-04-10T16:10:44;18.90;99.90
7388;DHT22;3735;50.136;11.062;2023-04-10T16:13:10;18.90;99.90
7388;DHT22;3735;50.136;11.062;2023-04-10T16:15:38;18.50;99.90
7388;DHT22;3735;50.136;11.062;2023-04-10T16:18:05;18.20;99.90
7388;DHT22;3735;50.136;11.062;2023-04-10T16:20:32;17.90;99.90
7388;DHT22;3735;50.136;11.062;2023-04-10T16:22:59;17.60;99.90
7388;DHT22;3735;50.136;11.062;2023-04-10T16:25:25;17.50;99.90
7388;DHT22;3735;50.136;11.062;2023-04-10T16:27:54;17.30;99.90
7388;DHT22;3735;50.136;11.062;2023-04-10T16:30:20;17.30;99.90
7388;DHT22;3735;50.136;11.062;2023-04-10T16:32:46;17.30;99.90
7388;DHT22;3735;50.136;11.062;2023-04-10T16:35:12;17.70;99.90